createdAt,value
2019-06-07T00:00:03.594Z,6.40
2019-06-07T00:02:31.350Z,6.37
2019-06-07T00:05:00.344Z,6.47
2019-06-07T00:07:29.240Z,6.37
2019-06-07T00:09:57.126Z,6.53
2019-06-07T00:12:25.804Z,6.33
2019-06-07T00:14:54.163Z,6.43
2019-06-07T00:17:23.697Z,6.70
2019-06-07T00:19:53.834Z,6.73
2019-06-07T00:22:32.412Z,6.23
2019-06-07T00:24:53.690Z,6.63
2019-06-07T00:27:23.838Z,6.20
2019-06-07T00:29:54.561Z,6.23
2019-06-07T00:32:22.498Z,6.57
2019-06-07T00:34:50.196Z,6.53
2019-06-07T00:37:20.610Z,6.67
2019-06-07T00:40:12.880Z,5.87
2019-06-07T00:42:24.248Z,7.10
2019-06-07T00:44:53.206Z,6.47
2019-06-07T00:47:25.025Z,7.00
2019-06-07T00:49:50.406Z,6.77
2019-06-07T00:53:07.102Z,6.10
2019-06-07T00:54:47.448Z,6.40
2019-06-07T00:57:16.696Z,5.93
2019-06-07T00:59:47.404Z,6.30
2019-06-07T01:02:16.684Z,5.63
2019-06-07T01:04:44.484Z,5.90
2019-06-07T01:07:13.378Z,5.60
2019-06-07T01:09:41.058Z,5.43
2019-06-07T01:12:09.370Z,5.20
2019-06-07T01:14:40.422Z,5.23
2019-06-07T01:17:29.111Z,5.53
2019-06-07T01:19:43.897Z,5.57
2019-06-07T01:22:11.629Z,5.60
2019-06-07T01:24:39.201Z,5.73
2019-06-07T01:30:36.231Z,5.93
2019-06-07T01:33:06.196Z,5.27
2019-06-07T01:35:33.827Z,6.23
2019-06-07T01:38:05.201Z,6.87
2019-06-07T01:40:34.607Z,6.80
2019-06-07T01:43:02.170Z,7.30
2019-06-07T01:45:31.168Z,9.80
2019-06-07T01:47:59.012Z,9.80
2019-06-07T01:50:29.744Z,9.97
2019-06-07T01:52:57.689Z,9.33
2019-06-07T01:55:29.211Z,9.50
2019-06-07T01:57:54.720Z,11.30
2019-06-07T02:00:28.365Z,9.57
2019-06-07T02:03:00.596Z,9.57
2019-06-07T02:05:33.003Z,10.13
2019-06-07T02:08:04.832Z,9.47
2019-06-07T02:10:33.562Z,9.67
2019-06-07T02:13:01.729Z,9.47
2019-06-07T02:15:36.132Z,9.60
2019-06-07T02:18:01.684Z,10.17
2019-06-07T02:20:34.184Z,7.27
2019-06-07T02:22:59.833Z,6.23
2019-06-07T02:25:38.338Z,5.90
2019-06-07T02:28:25.896Z,5.80
2019-06-07T02:30:47.351Z,5.73
2019-06-07T02:32:59.508Z,5.93
2019-06-07T02:35:34.749Z,5.60
2019-06-07T02:37:59.199Z,5.77
2019-06-07T02:40:36.472Z,5.97
2019-06-07T02:42:58.423Z,5.77
2019-06-07T02:45:34.970Z,5.50
2019-06-07T02:48:01.206Z,6.17
2019-06-07T02:50:35.359Z,5.53
2019-06-07T02:53:01.057Z,6.60
2019-06-07T02:55:31.247Z,5.93
2019-06-07T02:57:58.314Z,6.27
2019-06-07T03:01:06.081Z,5.80
2019-06-07T03:03:16.888Z,6.63
2019-06-07T03:05:45.389Z,7.93
2019-06-07T03:08:13.669Z,6.53
2019-06-07T03:10:44.343Z,6.80
2019-06-07T03:13:14.899Z,6.10
2019-06-07T03:15:49.964Z,6.73
2019-06-07T03:18:36.411Z,6.50
2019-06-07T03:24:31.031Z,6.20
2019-06-07T03:27:34.148Z,6.57
2019-06-07T03:29:41.185Z,6.40
2019-06-07T03:32:09.266Z,5.93
2019-06-07T03:34:43.538Z,6.70
2019-06-07T03:37:40.096Z,6.47
2019-06-07T03:40:05.266Z,6.00
2019-06-07T03:42:34.842Z,6.27
2019-06-07T03:45:02.454Z,7.10
2019-06-07T03:47:32.333Z,7.00
2019-06-07T03:49:59.806Z,6.97
2019-06-07T03:52:27.537Z,6.90
2019-06-07T03:54:56.372Z,7.57
2019-06-07T03:57:25.334Z,9.47
2019-06-07T03:59:53.010Z,7.80
2019-06-07T04:02:20.882Z,9.30
2019-06-07T04:04:48.521Z,9.27
2019-06-07T04:07:16.612Z,9.07
2019-06-07T04:09:48.659Z,9.03
2019-06-07T04:12:16.366Z,8.77
2019-06-07T04:14:51.246Z,9.93
2019-06-07T04:17:19.014Z,10.07
2019-06-07T04:19:46.679Z,10.57
2019-06-07T04:22:14.971Z,10.50
2019-06-07T04:24:46.197Z,11.57
2019-06-07T04:27:13.754Z,12.00
2019-06-07T04:30:05.355Z,11.70
2019-06-07T04:32:14.215Z,10.93
2019-06-07T04:34:43.266Z,11.13
2019-06-07T04:37:12.013Z,11.83
2019-06-07T04:39:45.437Z,11.63
2019-06-07T04:42:16.618Z,11.53
2019-06-07T04:44:48.828Z,11.27
2019-06-07T04:47:18.492Z,11.27
2019-06-07T04:49:50.278Z,11.20
2019-06-07T04:52:20.878Z,11.83
2019-06-07T04:54:48.783Z,11.70
2019-06-07T04:57:16.363Z,12.60
2019-06-07T05:02:13.858Z,13.00
2019-06-07T05:04:44.617Z,12.60
2019-06-07T05:07:15.279Z,12.97
2019-06-07T05:09:44.896Z,12.80
2019-06-07T05:12:30.022Z,13.27
2019-06-07T05:15:19.146Z,12.50
2019-06-07T05:22:11.670Z,11.30
2019-06-07T05:25:07.871Z,11.43
2019-06-07T05:28:32.557Z,11.33
2019-06-07T05:38:23.994Z,12.07
2019-06-07T05:41:03.376Z,12.27
2019-06-07T05:44:11.711Z,11.60
2019-06-07T05:47:02.568Z,12.07
2019-06-07T05:49:32.943Z,11.57
2019-06-07T05:52:38.493Z,11.17
2019-06-07T05:56:12.079Z,10.70
2019-06-07T05:59:54.526Z,11.03
2019-06-07T06:02:23.204Z,10.30
2019-06-07T06:05:05.418Z,10.70
2019-06-07T06:07:49.137Z,11.20
2019-06-07T06:10:22.528Z,10.93
2019-06-07T06:12:54.169Z,10.90
2019-06-07T06:16:13.553Z,11.40
2019-06-07T06:18:48.767Z,12.60
2019-06-07T06:21:19.912Z,12.00
2019-06-07T06:23:50.905Z,11.70
2019-06-07T06:26:17.186Z,11.30
2019-06-07T06:28:49.621Z,10.70
2019-06-07T06:35:23.229Z,9.80
2019-06-07T06:38:26.174Z,10.60
2019-06-07T06:41:27.500Z,11.93
2019-06-07T06:44:03.439Z,11.70
2019-06-07T06:46:41.117Z,11.63
2019-06-07T06:49:03.542Z,10.70
2019-06-07T06:51:36.343Z,10.57
2019-06-07T06:59:18.568Z,9.77
2019-06-07T07:01:13.926Z,8.30
2019-06-07T07:04:12.468Z,8.47
2019-06-07T07:07:00.555Z,8.43
2019-06-07T07:09:31.599Z,7.57
2019-06-07T07:12:10.938Z,7.40
2019-06-07T07:14:29.055Z,6.90
2019-06-07T07:16:56.808Z,8.30
2019-06-07T07:19:27.178Z,7.37
2019-06-07T07:22:08.656Z,7.73
2019-06-07T07:24:36.422Z,7.93
2019-06-07T07:27:22.948Z,8.23
2019-06-07T07:30:35.577Z,8.50
2019-06-07T07:32:57.684Z,8.13
2019-06-07T07:35:38.859Z,7.20
2019-06-07T07:38:21.899Z,7.20
2019-06-07T07:41:13.400Z,7.60
2019-06-07T07:43:30.063Z,8.20
2019-06-07T07:46:03.546Z,7.97
2019-06-07T07:49:12.743Z,4.53
2019-06-07T07:52:00.020Z,4.03
2019-06-07T07:54:59.152Z,4.07
2019-06-07T07:58:24.689Z,4.63
2019-06-07T08:01:39.511Z,3.83
2019-06-07T08:08:14.373Z,3.20
2019-06-07T08:10:44.628Z,3.73
2019-06-07T08:13:24.519Z,3.80
2019-06-07T08:15:43.462Z,4.10
2019-06-07T08:18:11.147Z,4.03
2019-06-07T08:21:04.875Z,3.90
2019-06-07T08:23:16.120Z,3.40
2019-06-07T08:26:02.186Z,3.63
2019-06-07T08:29:05.264Z,3.87
2019-06-07T08:31:33.035Z,3.33
2019-06-07T08:34:29.290Z,3.50
2019-06-07T08:37:01.928Z,3.50
2019-06-07T08:39:40.091Z,3.60
2019-06-07T08:43:18.200Z,4.83
2019-06-07T08:46:01.317Z,3.40
2019-06-07T08:48:50.021Z,3.17
2019-06-07T08:52:04.546Z,3.83
2019-06-07T08:54:26.718Z,3.37
2019-06-07T08:57:20.741Z,3.53
2019-06-07T09:03:15.737Z,3.77
2019-06-07T09:06:06.592Z,2.93
2019-06-07T09:09:23.240Z,3.40
2019-06-07T09:12:29.083Z,3.30
2019-06-07T09:15:22.748Z,3.43
2019-06-07T09:18:30.590Z,3.30
2019-06-07T09:20:36.675Z,3.40
2019-06-07T09:23:16.260Z,3.60
2019-06-07T09:25:55.902Z,3.70
2019-06-07T09:28:18.794Z,3.60
2019-06-07T09:30:57.330Z,3.20
2019-06-07T09:33:33.408Z,3.30
2019-06-07T09:36:30.987Z,3.90
2019-06-07T09:39:26.913Z,6.87
2019-06-07T09:41:56.303Z,3.73
2019-06-07T09:44:27.626Z,3.23
2019-06-07T09:47:50.363Z,3.40
2019-06-07T09:50:33.247Z,3.50
2019-06-07T09:53:32.513Z,3.70
2019-06-07T09:56:06.273Z,3.87
2019-06-07T09:58:50.998Z,3.63
2019-06-07T10:01:10.616Z,3.80
2019-06-07T10:03:34.972Z,3.30
2019-06-07T10:13:06.283Z,3.97
2019-06-07T10:16:17.367Z,4.20
2019-06-07T10:18:47.114Z,3.80
2019-06-07T10:21:40.220Z,4.17
2019-06-07T10:24:24.852Z,4.33
2019-06-07T10:27:10.559Z,4.60
2019-06-07T10:30:32.214Z,4.33
2019-06-07T10:33:02.583Z,3.40
2019-06-07T10:39:56.166Z,4.20
2019-06-07T10:43:20.776Z,4.27
2019-06-07T10:45:54.661Z,3.67
2019-06-07T10:48:45.924Z,3.73
2019-06-07T10:51:55.424Z,3.90
2019-06-07T10:55:13.811Z,3.87
2019-06-07T10:58:49.032Z,3.80
2019-06-07T11:02:14.290Z,8.37
2019-06-07T11:04:43.103Z,3.50
2019-06-07T11:07:14.494Z,3.63
2019-06-07T11:09:45.862Z,3.70
2019-06-07T11:12:16.197Z,3.60
2019-06-07T11:15:56.381Z,3.60
2019-06-07T11:18:45.524Z,4.77
2019-06-07T11:21:29.846Z,3.83
2019-06-07T11:24:31.052Z,3.50
2019-06-07T11:27:04.025Z,3.80
2019-06-07T11:30:12.450Z,4.10
2019-06-07T11:33:01.317Z,3.57
2019-06-07T11:35:43.838Z,4.20
2019-06-07T11:38:27.192Z,5.77
2019-06-07T11:41:18.512Z,4.33
2019-06-07T11:44:56.273Z,3.73
2019-06-07T11:47:18.537Z,3.83
2019-06-07T11:50:07.182Z,4.23
2019-06-07T11:53:15.059Z,3.90
2019-06-07T11:59:41.995Z,3.63
2019-06-07T12:02:11.470Z,4.13
2019-06-07T12:04:40.993Z,4.37
2019-06-07T12:07:24.251Z,3.83
2019-06-07T12:10:42.005Z,3.40
2019-06-07T12:13:05.257Z,3.63
2019-06-07T12:16:09.042Z,3.70
2019-06-07T12:23:21.691Z,4.97
2019-06-07T12:25:52.966Z,4.33
2019-06-07T12:28:39.212Z,3.90
2019-06-07T12:31:06.819Z,3.87
2019-06-07T12:34:03.747Z,3.67
2019-06-07T12:40:22.927Z,3.47
2019-06-07T12:42:57.227Z,3.73
2019-06-07T12:45:43.905Z,3.37
2019-06-07T12:51:38.024Z,3.23
2019-06-07T12:54:07.106Z,3.30
2019-06-07T12:56:43.096Z,3.17
2019-06-07T13:00:06.285Z,3.07
2019-06-07T13:02:38.681Z,2.80
2019-06-07T13:05:11.439Z,2.87
2019-06-07T13:07:39.189Z,3.27
2019-06-07T13:10:12.794Z,3.30
2019-06-07T13:12:48.848Z,2.93
2019-06-07T13:15:23.565Z,3.30
2019-06-07T13:17:53.171Z,3.40
2019-06-07T13:20:42.108Z,3.30
2019-06-07T13:23:45.943Z,3.60
2019-06-07T13:27:16.199Z,3.30
2019-06-07T13:30:09.823Z,3.13
2019-06-07T13:33:48.796Z,3.40
2019-06-07T13:40:19.227Z,3.63
2019-06-07T13:43:14.481Z,5.10
2019-06-07T13:46:44.874Z,3.13
2019-06-07T13:49:41.581Z,3.50
2019-06-07T13:52:10.521Z,3.60
2019-06-07T13:55:14.280Z,3.10
2019-06-07T13:57:50.925Z,3.00
2019-06-07T14:05:10.098Z,3.47
2019-06-07T14:07:47.609Z,3.20
2019-06-07T14:10:19.463Z,3.30
2019-06-07T14:12:47.367Z,3.07
2019-06-07T14:16:07.181Z,3.23
2019-06-07T14:19:07.704Z,3.33
2019-06-07T14:21:37.011Z,3.40
2019-06-07T14:24:05.310Z,3.20
2019-06-07T14:27:06.304Z,3.10
2019-06-07T14:29:49.724Z,3.63
2019-06-07T14:32:36.692Z,3.63
2019-06-07T14:35:19.509Z,3.50
2019-06-07T14:37:49.237Z,3.30
2019-06-07T14:40:18.273Z,3.07
2019-06-07T14:42:47.246Z,3.60
2019-06-07T14:45:47.412Z,3.43
2019-06-07T14:49:10.241Z,3.80
2019-06-07T14:55:49.880Z,3.33
2019-06-07T14:59:23.241Z,3.37
2019-06-07T15:02:57.659Z,3.17
2019-06-07T15:05:42.422Z,3.07
2019-06-07T15:10:50.162Z,3.33
2019-06-07T15:13:35.603Z,4.10
2019-06-07T15:16:55.741Z,3.30
2019-06-07T15:20:15.652Z,3.40
2019-06-07T15:26:32.433Z,3.63
2019-06-07T15:29:02.645Z,3.20
2019-06-07T15:31:35.035Z,3.43
2019-06-07T15:34:06.912Z,3.37
2019-06-07T15:36:42.572Z,3.40
2019-06-07T15:39:13.439Z,3.40
2019-06-07T15:41:46.770Z,3.50
2019-06-07T15:45:39.736Z,3.50
2019-06-07T15:48:23.392Z,3.90
2019-06-07T15:50:55.161Z,3.10
2019-06-07T15:53:27.932Z,3.63
2019-06-07T15:56:03.321Z,3.40
2019-06-07T15:59:19.663Z,3.73
2019-06-07T16:02:10.061Z,3.20
2019-06-07T16:04:42.502Z,3.40
2019-06-07T16:07:10.316Z,3.70
2019-06-07T16:09:42.840Z,3.50
2019-06-07T16:12:17.195Z,3.67
2019-06-07T16:15:34.734Z,5.67
2019-06-07T16:19:11.586Z,3.10
2019-06-07T16:21:58.992Z,3.60
2019-06-07T16:28:22.650Z,3.77
2019-06-07T16:32:02.228Z,3.83
2019-06-07T16:37:36.267Z,3.43
2019-06-07T16:40:09.827Z,3.50
2019-06-07T16:43:18.404Z,3.20
2019-06-07T16:46:08.673Z,4.20
2019-06-07T16:48:36.806Z,3.60
2019-06-07T16:51:07.267Z,3.50
2019-06-07T16:53:38.268Z,3.93
2019-06-07T16:59:42.928Z,3.33
2019-06-07T17:02:26.563Z,3.90
2019-06-07T17:05:37.681Z,3.50
2019-06-07T17:08:07.890Z,3.90
2019-06-07T17:11:02.145Z,6.37
2019-06-07T17:17:29.941Z,3.00
2019-06-07T17:20:43.609Z,3.57
2019-06-07T17:23:13.042Z,3.97
2019-06-07T17:25:54.868Z,3.37
2019-06-07T17:28:22.746Z,3.30
2019-06-07T17:30:50.645Z,3.30
2019-06-07T17:33:18.472Z,3.17
2019-06-07T17:35:46.576Z,3.50
2019-06-07T17:38:14.311Z,3.43
2019-06-07T17:40:51.602Z,8.83
2019-06-07T17:43:21.829Z,3.50
2019-06-07T17:45:51.533Z,3.43
2019-06-07T17:52:09.034Z,3.47
2019-06-07T17:54:39.387Z,3.73
2019-06-07T17:57:14.648Z,13.03
2019-06-07T17:59:46.451Z,3.50
2019-06-07T18:02:18.226Z,4.00
2019-06-07T18:05:29.254Z,3.40
2019-06-07T18:08:00.896Z,3.50
2019-06-07T18:10:58.264Z,3.97
2019-06-07T18:13:44.033Z,3.90
2019-06-07T18:16:20.636Z,4.70
2019-06-07T18:18:48.741Z,3.90
2019-06-07T18:21:21.194Z,3.90
2019-06-07T18:23:54.794Z,4.47
2019-06-07T18:26:23.832Z,4.30
2019-06-07T18:29:09.221Z,4.90
2019-06-07T18:31:46.748Z,4.70
2019-06-07T18:34:23.801Z,5.10
2019-06-07T18:37:18.121Z,5.43
2019-06-07T18:39:47.035Z,4.60
2019-06-07T18:42:15.058Z,5.03
2019-06-07T18:44:43.169Z,5.73
2019-06-07T18:47:19.877Z,5.20
2019-06-07T18:49:57.868Z,3.73
2019-06-07T18:55:24.873Z,3.63
2019-06-07T19:02:00.203Z,3.33
2019-06-07T19:09:12.036Z,2.70
2019-06-07T19:12:43.740Z,2.47
2019-06-07T19:15:32.776Z,2.30
2019-06-07T19:22:43.482Z,3.57
2019-06-07T19:25:12.714Z,2.30
2019-06-07T19:27:41.099Z,1.47
2019-06-07T19:30:11.859Z,1.80
2019-06-07T19:32:49.480Z,1.93
2019-06-07T19:35:19.882Z,1.40
2019-06-07T19:38:05.408Z,1.53
2019-06-07T19:40:37.130Z,1.13
2019-06-07T19:43:08.111Z,1.17
2019-06-07T19:45:35.757Z,1.47
2019-06-07T19:48:03.795Z,1.60
2019-06-07T19:50:31.764Z,1.80
2019-06-07T19:52:59.311Z,1.27
2019-06-07T19:55:27.398Z,1.70
2019-06-07T19:57:55.620Z,1.07
2019-06-07T20:00:23.240Z,1.27
2019-06-07T20:02:52.109Z,2.07
2019-06-07T20:05:22.393Z,1.23
2019-06-07T20:07:58.538Z,0.97
2019-06-07T20:10:26.433Z,1.20
2019-06-07T20:13:05.098Z,1.33
2019-06-07T20:15:52.745Z,1.10
2019-06-07T20:18:22.805Z,1.43
2019-06-07T20:20:51.660Z,7.40
2019-06-07T20:23:24.915Z,13.73
2019-06-07T20:25:52.618Z,1.07
2019-06-07T20:28:21.529Z,1.40
2019-06-07T20:30:57.619Z,1.20
2019-06-07T20:33:34.510Z,1.80
2019-06-07T20:36:04.862Z,1.67
2019-06-07T20:38:38.388Z,2.90
2019-06-07T20:41:07.449Z,1.93
2019-06-07T20:43:37.870Z,1.30
2019-06-07T20:46:15.154Z,1.43
2019-06-07T20:48:48.360Z,1.27
2019-06-07T20:51:20.718Z,1.60
2019-06-07T20:53:51.758Z,1.50
2019-06-07T20:56:23.922Z,2.03
2019-06-07T20:59:21.082Z,1.73
2019-06-07T21:02:35.117Z,1.73
2019-06-07T21:05:20.207Z,1.70
2019-06-07T21:11:56.050Z,2.00
2019-06-07T21:14:41.723Z,1.40
2019-06-07T21:17:10.350Z,1.33
2019-06-07T21:19:41.832Z,1.60
2019-06-07T21:22:10.970Z,1.33
2019-06-07T21:25:23.837Z,1.30
2019-06-07T21:27:53.664Z,1.30
2019-06-07T21:30:27.731Z,1.40
2019-06-07T21:32:55.348Z,1.40
2019-06-07T21:35:25.690Z,1.33
2019-06-07T21:37:57.282Z,1.20
2019-06-07T21:40:25.326Z,1.47
2019-06-07T21:42:53.003Z,1.50
2019-06-07T21:45:28.069Z,1.20
2019-06-07T21:47:55.902Z,1.50
2019-06-07T21:50:24.039Z,1.60
2019-06-07T21:52:52.018Z,1.80
2019-06-07T21:55:25.348Z,1.30
2019-06-07T21:57:53.629Z,1.77
2019-06-07T22:00:47.948Z,1.30
2019-06-07T22:03:15.578Z,1.40
2019-06-07T22:05:44.417Z,1.60
2019-06-07T22:08:15.122Z,1.40
2019-06-07T22:10:42.777Z,1.50
2019-06-07T22:13:14.769Z,1.63
2019-06-07T22:15:43.334Z,1.60
2019-06-07T22:18:15.373Z,1.60
2019-06-07T22:20:42.985Z,1.20
2019-06-07T22:23:12.991Z,1.53
2019-06-07T22:25:40.581Z,13.57
2019-06-07T22:28:08.172Z,2.67
2019-06-07T22:30:35.886Z,1.60
2019-06-07T22:33:03.555Z,1.40
2019-06-07T22:35:33.232Z,1.33
2019-06-07T22:38:01.027Z,1.40
2019-06-07T22:40:28.942Z,1.50
2019-06-07T22:43:19.698Z,1.40
2019-06-07T22:46:00.110Z,1.30
2019-06-07T22:48:28.496Z,1.40
2019-06-07T22:51:02.577Z,1.73
2019-06-07T22:53:58.100Z,1.47
2019-06-07T22:56:37.955Z,1.63
2019-06-07T22:59:14.114Z,1.83
2019-06-07T23:02:35.054Z,2.20
2019-06-07T23:05:47.431Z,1.93
2019-06-07T23:08:17.023Z,1.30
2019-06-07T23:10:44.774Z,2.00
2019-06-07T23:13:13.549Z,1.40
2019-06-07T23:15:41.402Z,1.20
2019-06-07T23:18:11.847Z,1.30
2019-06-07T23:20:39.801Z,1.57
2019-06-07T23:23:10.061Z,1.30
2019-06-07T23:25:41.443Z,1.40
2019-06-07T23:28:14.643Z,1.37
2019-06-07T23:30:46.662Z,1.47
2019-06-07T23:33:14.814Z,1.30
2019-06-07T23:35:42.805Z,1.40
2019-06-07T23:38:10.899Z,1.33
2019-06-07T23:40:38.883Z,1.50
2019-06-07T23:43:08.296Z,1.30
2019-06-07T23:45:35.948Z,1.20
2019-06-07T23:48:03.585Z,1.40
2019-06-07T23:50:31.342Z,1.20
2019-06-07T23:52:59.098Z,1.83
2019-06-07T23:55:29.386Z,1.50
2019-06-07T23:57:57.537Z,1.13
